createdAt,value
2018-09-04T00:06:43.198Z,12.9
2018-09-04T00:16:57.939Z,10.4
2018-09-04T00:27:43.344Z,18.4
2018-09-04T00:37:57.488Z,11.7
2018-09-04T00:48:11.772Z,13.3
2018-09-04T00:58:25.820Z,9.2
2018-09-04T01:09:11.579Z,19.6
2018-09-04T01:19:25.917Z,12.7
2018-09-04T01:29:40.289Z,12.1
2018-09-04T01:39:54.420Z,11.6
2018-09-04T01:50:08.631Z,12.8
2018-09-04T02:00:53.319Z,23.4
2018-09-04T02:11:07.558Z,16.0
2018-09-04T02:21:52.192Z,14.7
2018-09-04T02:32:37.031Z,22.9
2018-09-04T02:42:51.483Z,18.9
2018-09-04T02:53:05.547Z,16.5
2018-09-04T03:03:19.859Z,20.6
2018-09-04T03:13:34.230Z,18.5
2018-09-04T03:24:18.745Z,27.1
2018-09-04T03:34:32.763Z,16.1
2018-09-04T03:44:47.139Z,12.7
2018-09-04T03:55:01.256Z,12.3
2018-09-04T04:05:15.478Z,13.2
2018-09-04T04:16:01.015Z,22.6
2018-09-04T04:26:15.447Z,13.5
2018-09-04T04:37:01.145Z,21.2
2018-09-04T04:47:15.631Z,12.6
2018-09-04T04:57:27.880Z,11.2
2018-09-04T05:07:41.801Z,16.8
2018-09-04T05:18:27.447Z,24.8
2018-09-04T05:28:41.939Z,15.0
2018-09-04T05:38:56.621Z,20.5
2018-09-04T05:49:10.837Z,16.7
2018-09-04T05:59:25.334Z,20.7
2018-09-04T06:09:39.535Z,20.5
2018-09-04T06:19:53.691Z,19.7
2018-09-04T06:30:38.429Z,26.4
2018-09-04T06:40:52.445Z,19.1
2018-09-04T06:51:03.844Z,15.8
2018-09-04T07:01:18.015Z,15.4
2018-09-04T07:11:29.665Z,16.1
2018-09-04T07:21:41.785Z,13.0
2018-09-04T07:31:53.181Z,15.5
2018-09-04T07:42:08.645Z,13.1
2018-09-04T07:52:53.460Z,26.4
2018-09-04T08:03:07.405Z,20.4
2018-09-04T08:14:22.447Z,35.7
2018-09-04T08:25:08.194Z,34.3
2018-09-04T08:35:20.451Z,20.4
2018-09-04T08:46:05.025Z,30.0
2018-09-04T08:56:49.766Z,24.2
2018-09-04T09:07:34.541Z,28.2
2018-09-04T09:18:19.107Z,26.6
2018-09-04T09:28:33.781Z,19.0
2018-09-04T09:39:18.151Z,20.6
2018-09-04T09:49:32.353Z,17.1
2018-09-04T09:59:46.898Z,15.6
2018-09-04T10:09:58.942Z,11.5
2018-09-04T10:20:10.340Z,14.5
2018-09-04T10:30:24.690Z,12.6
2018-09-04T10:42:28.812Z,14.3
2018-09-04T10:52:42.459Z,12.9
2018-09-04T11:02:57.050Z,11.9
2018-09-04T11:13:10.869Z,10.0
2018-09-04T11:23:21.991Z,11.6
2018-09-04T11:33:35.311Z,11.3
2018-09-04T11:43:50.977Z,10.1
2018-09-04T11:54:04.756Z,9.6
2018-09-04T12:04:18.259Z,6.3
2018-09-04T12:14:29.864Z,9.3
2018-09-04T12:25:00.294Z,9.3
2018-09-04T12:35:12.119Z,9.7
2018-09-04T12:45:26.289Z,7.9
2018-09-04T12:55:46.071Z,6.7
2018-09-04T13:06:00.082Z,6.5
2018-09-04T13:16:14.900Z,6.1
2018-09-04T13:26:29.032Z,6.0
2018-09-04T13:36:42.746Z,5.4
2018-09-04T13:48:06.958Z,7.5
2018-09-04T14:08:37.697Z,6.8
2018-09-04T14:18:51.901Z,5.4
2018-09-04T14:29:10.299Z,5.6
2018-09-04T14:50:01.598Z,7.6
2018-09-04T15:00:16.180Z,5.8
2018-09-04T15:10:53.251Z,5.4
2018-09-04T15:21:07.344Z,7.8
2018-09-04T15:31:21.795Z,7.9
2018-09-04T15:41:35.782Z,7.0
2018-09-04T15:51:49.962Z,5.6
2018-09-04T16:02:29.028Z,6.5
2018-09-04T16:13:15.785Z,6.7
2018-09-04T16:23:29.086Z,6.4
2018-09-04T16:34:06.382Z,5.2
2018-09-04T16:44:17.696Z,4.9
2018-09-04T16:54:32.624Z,5.4
2018-09-04T17:06:06.151Z,6.0
2018-09-04T17:16:20.130Z,6.4
2018-09-04T17:26:34.460Z,6.8
2018-09-04T17:48:55.751Z,9.2
2018-09-04T17:59:09.955Z,7.3
2018-09-04T18:09:23.948Z,8.7
2018-09-04T18:20:09.750Z,10.0
2018-09-04T18:41:35.814Z,9.6
2018-09-04T18:51:51.243Z,8.1
2018-09-04T19:02:02.932Z,7.2
2018-09-04T19:12:19.330Z,8.5
2018-09-04T19:23:14.055Z,8.8
2018-09-04T19:33:28.690Z,6.5
2018-09-04T19:43:40.167Z,7.7
2018-09-04T19:53:54.300Z,8.3
2018-09-04T20:04:39.000Z,10.2
2018-09-04T20:15:22.925Z,10.1
2018-09-04T20:26:07.590Z,9.2
2018-09-04T20:36:53.290Z,11.6
2018-09-04T20:47:06.829Z,7.1
2018-09-04T20:57:20.885Z,8.4
2018-09-04T21:07:35.519Z,9.5
2018-09-04T21:17:49.611Z,9.1
2018-09-04T21:28:03.690Z,10.3
2018-09-04T21:38:18.040Z,7.8
2018-09-04T21:49:02.530Z,13.1
2018-09-04T21:59:18.442Z,7.4
2018-09-04T22:09:31.739Z,8.9
2018-09-04T22:19:45.062Z,7.8
2018-09-04T22:29:56.562Z,10.2
2018-09-04T22:40:40.982Z,13.9
2018-09-04T22:50:54.406Z,8.8
2018-09-04T23:01:08.406Z,9.6
2018-09-04T23:11:22.067Z,10.8
2018-09-04T23:21:35.944Z,11.8
2018-09-04T23:31:49.951Z,9.4
2018-09-04T23:42:03.472Z,10.7
2018-09-04T23:52:17.913Z,8.9
